createdAt,value
2022-08-10T00:01:54.391Z,20.10
2022-08-10T00:04:23.561Z,20.10
2022-08-10T00:06:54.924Z,20.10
2022-08-10T00:09:25.064Z,20.00
2022-08-10T00:11:53.375Z,20.00
2022-08-10T00:14:21.915Z,19.90
2022-08-10T00:16:50.294Z,19.90
2022-08-10T00:19:18.714Z,19.70
2022-08-10T00:21:47.885Z,19.70
2022-08-10T00:24:17.905Z,19.70
2022-08-10T00:27:52.230Z,19.70
2022-08-10T00:29:35.715Z,19.70
2022-08-10T00:32:04.195Z,19.70
2022-08-10T00:34:33.186Z,19.60
2022-08-10T00:37:01.996Z,19.60
2022-08-10T00:39:34.491Z,19.50
2022-08-10T00:42:08.156Z,19.50
2022-08-10T00:44:37.395Z,19.50
2022-08-10T00:47:06.025Z,19.50
2022-08-10T00:49:34.504Z,19.40
2022-08-10T00:52:03.104Z,19.40
2022-08-10T00:54:33.345Z,19.40
2022-08-10T00:57:16.255Z,19.40
2022-08-10T00:59:58.820Z,19.10
2022-08-10T01:02:28.801Z,19.10
2022-08-10T01:05:00.694Z,19.10
2022-08-10T01:07:35.285Z,19.00
2022-08-10T01:10:08.275Z,19.00
2022-08-10T01:12:43.136Z,18.90
2022-08-10T01:15:15.957Z,18.90
2022-08-10T01:17:51.569Z,18.80
2022-08-10T01:20:36.015Z,18.90
2022-08-10T01:23:19.187Z,18.80
2022-08-10T01:26:31.328Z,18.80
2022-08-10T01:29:09.505Z,18.70
2022-08-10T01:31:42.104Z,18.70
2022-08-10T01:34:12.004Z,18.70
2022-08-10T01:36:46.215Z,18.60
2022-08-10T01:39:21.616Z,18.60
2022-08-10T01:41:52.615Z,18.60
2022-08-10T01:44:25.504Z,18.60
2022-08-10T01:46:57.682Z,18.60
2022-08-10T01:49:26.245Z,18.50
2022-08-10T01:52:00.528Z,18.50
2022-08-10T01:54:30.465Z,18.50
2022-08-10T01:57:01.254Z,18.50
2022-08-10T01:59:32.733Z,18.50
2022-08-10T02:02:04.138Z,18.50
2022-08-10T02:04:33.934Z,18.50
2022-08-10T02:07:16.675Z,18.50
2022-08-10T02:09:47.274Z,18.50
2022-08-10T02:12:17.535Z,18.40
2022-08-10T02:14:48.186Z,18.30
2022-08-10T02:17:58.126Z,18.30
2022-08-10T02:20:10.144Z,18.30
2022-08-10T02:22:39.360Z,18.30
2022-08-10T02:25:08.575Z,18.20
2022-08-10T02:27:37.336Z,18.20
2022-08-10T02:30:06.654Z,18.20
2022-08-10T02:32:38.498Z,18.10
2022-08-10T02:35:14.771Z,18.10
2022-08-10T02:37:51.072Z,18.10
2022-08-10T02:45:03.200Z,18.10
2022-08-10T02:45:23.749Z,18.20
2022-08-10T03:14:09.858Z,18.10
2022-08-10T03:16:38.758Z,18.10
2022-08-10T03:19:07.944Z,18.10
2022-08-10T03:21:58.459Z,18.10
2022-08-10T03:24:32.803Z,18.10
2022-08-10T03:27:02.343Z,18.10
2022-08-10T03:30:28.171Z,18.10
2022-08-10T03:32:21.515Z,18.10
2022-08-10T03:34:50.245Z,18.10
2022-08-10T03:37:20.265Z,18.10
2022-08-10T03:39:48.729Z,18.10
2022-08-10T03:42:17.687Z,18.00
2022-08-10T03:44:50.347Z,18.10
2022-08-10T03:47:19.487Z,18.10
2022-08-10T03:49:49.114Z,18.00
2022-08-10T03:52:18.134Z,18.00
2022-08-10T03:54:51.726Z,18.00
2022-08-10T03:57:20.754Z,18.00
2022-08-10T03:59:49.124Z,18.00
2022-08-10T04:02:45.905Z,18.00
2022-08-10T04:05:07.465Z,18.00
2022-08-10T04:07:37.324Z,18.00
2022-08-10T04:10:07.954Z,18.00
2022-08-10T04:12:41.559Z,18.10
2022-08-10T04:15:28.454Z,18.20
2022-08-10T04:18:05.820Z,18.10
2022-08-10T04:20:38.355Z,18.10
2022-08-10T04:23:08.704Z,18.10
2022-08-10T04:25:39.765Z,18.40
2022-08-10T04:28:08.453Z,18.40
2022-08-10T04:30:38.313Z,18.30
2022-08-10T04:33:08.067Z,18.40
2022-08-10T04:35:37.024Z,19.00
2022-08-10T04:38:05.744Z,19.80
2022-08-10T04:40:34.144Z,20.40
2022-08-10T04:43:13.642Z,20.80
2022-08-10T04:45:49.471Z,21.00
2022-08-10T04:48:39.992Z,21.10
2022-08-10T04:51:10.837Z,20.70
2022-08-10T04:54:05.411Z,19.90
2022-08-10T04:56:32.571Z,19.20
2022-08-10T04:59:02.534Z,18.70
2022-08-10T05:02:21.542Z,18.40
2022-08-10T05:04:38.627Z,18.40
2022-08-10T05:07:11.151Z,18.30
2022-08-10T05:10:03.210Z,18.20
2022-08-10T05:12:35.678Z,18.20
2022-08-10T05:15:08.064Z,18.30
2022-08-10T05:17:36.600Z,18.40
2022-08-10T05:20:07.163Z,18.60
2022-08-10T05:22:37.829Z,18.70
2022-08-10T05:25:07.384Z,18.70
2022-08-10T05:27:36.142Z,18.80
2022-08-10T05:30:05.335Z,18.80
2022-08-10T05:32:56.462Z,18.60
2022-08-10T05:35:24.097Z,18.70
2022-08-10T05:38:12.192Z,19.00
2022-08-10T05:40:46.336Z,19.30
2022-08-10T05:43:17.059Z,19.70
2022-08-10T05:46:17.626Z,19.70
2022-08-10T05:48:57.587Z,19.70
2022-08-10T05:51:24.774Z,19.90
2022-08-10T05:54:02.076Z,20.10
2022-08-10T05:56:55.860Z,20.00
2022-08-10T06:00:11.102Z,20.00
2022-08-10T06:02:33.289Z,20.20
2022-08-10T06:05:08.904Z,20.20
2022-08-10T06:07:39.405Z,20.20
2022-08-10T06:10:13.221Z,20.30
2022-08-10T06:12:55.021Z,20.60
2022-08-10T06:15:51.774Z,20.70
2022-08-10T06:18:15.739Z,20.60
2022-08-10T06:20:47.194Z,20.60
2022-08-10T06:23:15.894Z,20.60
2022-08-10T06:26:10.410Z,20.70
2022-08-10T06:28:35.044Z,20.60
2022-08-10T06:31:04.824Z,20.60
2022-08-10T06:33:36.306Z,20.60
2022-08-10T06:36:08.936Z,20.50
2022-08-10T06:38:39.644Z,20.80
2022-08-10T06:41:09.915Z,20.70
2022-08-10T06:43:41.830Z,20.60
2022-08-10T06:46:12.825Z,20.70
2022-08-10T06:48:47.063Z,20.80
2022-08-10T06:51:19.096Z,21.20
2022-08-10T06:53:52.197Z,21.00
2022-08-10T06:56:36.575Z,20.80
2022-08-10T06:59:21.445Z,21.10
2022-08-10T07:01:52.375Z,21.30
2022-08-10T07:04:32.362Z,21.60
2022-08-10T07:07:04.614Z,21.60
2022-08-10T07:09:34.686Z,21.50
2022-08-10T07:12:08.071Z,21.50
2022-08-10T07:14:39.153Z,21.60
2022-08-10T07:17:08.864Z,21.80
2022-08-10T07:19:50.558Z,21.70
2022-08-10T07:23:01.504Z,21.70
2022-08-10T07:25:13.795Z,22.00
2022-08-10T07:28:00.129Z,22.10
2022-08-10T07:30:31.805Z,22.10
2022-08-10T07:33:01.726Z,22.30
2022-08-10T07:35:36.369Z,22.20
2022-08-10T07:38:20.747Z,22.40
2022-08-10T07:40:50.105Z,22.50
2022-08-10T07:43:19.136Z,22.60
2022-08-10T07:45:48.322Z,22.80
2022-08-10T07:48:17.755Z,22.90
2022-08-10T07:50:47.419Z,23.00
2022-08-10T07:53:20.577Z,23.10
2022-08-10T07:56:04.867Z,23.10
2022-08-10T07:58:39.737Z,23.10
2022-08-10T08:01:15.493Z,23.00
2022-08-10T08:04:05.266Z,23.10
2022-08-10T08:06:37.635Z,23.10
2022-08-10T08:09:07.426Z,23.30
2022-08-10T08:11:37.319Z,23.20
2022-08-10T08:14:06.184Z,23.30
2022-08-10T08:16:35.654Z,23.40
2022-08-10T08:24:09.792Z,23.60
2022-08-10T08:24:43.742Z,23.80
2022-08-10T08:27:15.388Z,24.10
2022-08-10T08:29:45.776Z,24.00
2022-08-10T08:32:14.404Z,24.00
2022-08-10T08:34:44.105Z,23.90
2022-08-10T08:38:26.478Z,23.90
2022-08-10T08:40:03.474Z,23.90
2022-08-10T08:42:57.274Z,24.00
2022-08-10T08:45:29.804Z,24.30
2022-08-10T08:48:15.975Z,24.20
2022-08-10T08:50:57.563Z,24.10
2022-08-10T08:54:00.887Z,24.10
2022-08-10T08:56:26.656Z,24.10
2022-08-10T08:59:04.024Z,24.70
2022-08-10T09:01:41.208Z,24.70
2022-08-10T09:04:21.257Z,24.70
2022-08-10T09:07:59.338Z,24.70
2022-08-10T09:10:06.585Z,24.90
2022-08-10T09:12:45.756Z,24.80
2022-08-10T09:15:39.483Z,24.80
2022-08-10T09:18:10.052Z,25.20
2022-08-10T09:20:40.805Z,25.20
2022-08-10T09:23:13.535Z,25.20
2022-08-10T09:25:49.385Z,25.20
2022-08-10T09:28:26.717Z,25.40
2022-08-10T09:36:22.103Z,25.70
2022-08-10T09:36:49.915Z,25.40
2022-08-10T09:40:58.320Z,25.40
2022-08-10T09:42:30.019Z,25.60
2022-08-10T09:45:03.938Z,25.60
2022-08-10T09:47:58.811Z,25.60
2022-08-10T09:50:26.622Z,25.60
2022-08-10T09:53:07.251Z,25.50
2022-08-10T09:56:17.783Z,25.50
2022-08-10T09:58:35.840Z,25.70
2022-08-10T10:01:08.100Z,25.90
2022-08-10T10:04:03.979Z,25.60
2022-08-10T10:06:38.099Z,25.40
2022-08-10T10:09:11.036Z,25.50
2022-08-10T10:11:45.300Z,25.60
2022-08-10T10:14:17.729Z,25.80
2022-08-10T10:16:53.469Z,26.00
2022-08-10T10:19:28.920Z,26.10
2022-08-10T10:22:01.800Z,26.00
2022-08-10T10:24:34.548Z,26.20
2022-08-10T10:27:16.589Z,26.20
2022-08-10T10:29:57.483Z,26.20
2022-08-10T10:32:32.107Z,26.10
2022-08-10T10:35:09.881Z,26.30
2022-08-10T10:38:02.037Z,26.40
2022-08-10T10:40:28.769Z,26.50
2022-08-10T10:43:03.978Z,26.70
2022-08-10T10:45:39.068Z,26.90
2022-08-10T10:48:23.960Z,27.00
2022-08-10T10:50:56.410Z,26.80
2022-08-10T10:53:28.808Z,26.50
2022-08-10T10:56:15.752Z,26.40
2022-08-10T10:58:50.658Z,26.30
2022-08-10T11:01:27.363Z,26.60
2022-08-10T11:04:10.097Z,26.70
2022-08-10T11:06:45.682Z,27.00
2022-08-10T11:10:06.089Z,27.10
2022-08-10T11:12:34.718Z,27.30
2022-08-10T11:15:42.747Z,27.30
2022-08-10T11:18:22.418Z,27.40
2022-08-10T11:20:56.667Z,27.60
2022-08-10T11:23:30.061Z,27.90
2022-08-10T11:26:08.172Z,28.00
2022-08-10T11:28:40.260Z,28.10
2022-08-10T11:31:14.293Z,27.80
2022-08-10T11:36:43.159Z,27.20
2022-08-10T11:39:16.686Z,27.30
2022-08-10T11:42:12.234Z,27.60
2022-08-10T11:44:42.010Z,27.60
2022-08-10T11:47:13.469Z,27.90
2022-08-10T11:49:47.829Z,28.10
2022-08-10T11:52:21.054Z,28.40
2022-08-10T11:54:53.459Z,28.40
2022-08-10T11:57:53.195Z,27.80
2022-08-10T12:00:23.180Z,27.40
2022-08-10T12:02:56.303Z,27.30
2022-08-10T12:05:48.258Z,27.30
2022-08-10T12:10:07.643Z,27.30
2022-08-10T12:11:10.509Z,27.30
2022-08-10T12:13:53.808Z,27.30
2022-08-10T12:16:33.250Z,27.30
2022-08-10T12:19:20.179Z,27.50
2022-08-10T12:22:01.027Z,27.90
2022-08-10T12:24:37.908Z,28.10
2022-08-10T12:27:13.326Z,28.10
2022-08-10T12:30:02.748Z,28.20
2022-08-10T12:32:34.210Z,28.30
2022-08-10T12:35:22.672Z,28.20
2022-08-10T12:38:02.139Z,28.40
2022-08-10T12:40:36.432Z,28.60
2022-08-10T12:44:04.796Z,28.80
2022-08-10T12:46:06.276Z,28.90
2022-08-10T12:48:38.448Z,28.80
2022-08-10T12:51:29.218Z,28.80
2022-08-10T12:54:00.440Z,28.80
2022-08-10T12:56:49.542Z,28.50
2022-08-10T12:59:25.170Z,28.20
2022-08-10T13:02:13.472Z,27.80
2022-08-10T13:08:28.098Z,27.40
2022-08-10T13:12:37.912Z,27.40
2022-08-10T13:14:33.421Z,27.30
2022-08-10T13:17:02.769Z,27.20
2022-08-10T13:19:37.640Z,27.10
2022-08-10T13:22:24.880Z,27.10
2022-08-10T13:24:55.574Z,27.00
2022-08-10T13:28:01.042Z,27.10
2022-08-10T13:30:35.602Z,27.10
2022-08-10T13:33:07.424Z,27.20
2022-08-10T13:35:36.528Z,27.20
2022-08-10T13:38:06.548Z,27.40
2022-08-10T13:40:36.277Z,27.30
2022-08-10T13:43:08.116Z,27.50
2022-08-10T13:45:42.336Z,27.70
2022-08-10T13:48:15.919Z,27.90
2022-08-10T13:50:45.380Z,27.90
2022-08-10T13:53:15.841Z,27.80
2022-08-10T13:55:55.368Z,27.60
2022-08-10T13:58:27.837Z,27.50
2022-08-10T14:00:59.990Z,27.30
2022-08-10T14:03:30.320Z,27.20
2022-08-10T14:05:59.940Z,27.10
2022-08-10T14:08:30.273Z,27.10
2022-08-10T14:11:11.067Z,27.10
2022-08-10T14:13:43.609Z,27.10
2022-08-10T14:16:14.423Z,27.20
2022-08-10T14:18:45.268Z,27.20
2022-08-10T14:21:14.099Z,27.20
2022-08-10T14:23:52.876Z,27.20
2022-08-10T14:26:26.426Z,27.20
2022-08-10T14:29:31.028Z,27.20
2022-08-10T14:32:03.388Z,27.20
2022-08-10T14:36:15.578Z,27.20
2022-08-10T14:37:24.562Z,27.30
2022-08-10T14:40:14.338Z,27.20
2022-08-10T14:42:53.800Z,27.30
2022-08-10T14:45:53.450Z,27.60
2022-08-10T14:48:38.770Z,28.00
2022-08-10T14:54:18.416Z,28.40
2022-08-10T15:00:25.133Z,28.30
2022-08-10T15:02:39.136Z,28.10
2022-08-10T15:05:12.699Z,28.00
2022-08-10T15:07:42.602Z,27.80
2022-08-10T15:10:11.533Z,27.80
2022-08-10T15:12:41.863Z,27.70
2022-08-10T15:15:31.702Z,27.60
2022-08-10T15:18:26.298Z,27.60
2022-08-10T15:20:58.672Z,27.60
2022-08-10T15:23:30.531Z,27.80
2022-08-10T15:26:07.161Z,27.80
2022-08-10T15:29:23.608Z,27.90
2022-08-10T15:31:34.072Z,27.90
2022-08-10T15:34:21.185Z,28.00
2022-08-10T15:37:36.421Z,28.10
2022-08-10T15:40:26.981Z,28.10
2022-08-10T15:42:55.165Z,28.10
2022-08-10T15:45:27.457Z,27.90
2022-08-10T15:48:03.055Z,27.70
2022-08-10T15:50:39.781Z,27.60
2022-08-10T15:53:16.465Z,27.40
2022-08-10T15:55:48.903Z,27.40
2022-08-10T15:58:30.299Z,27.30
2022-08-10T16:02:12.813Z,27.20
2022-08-10T16:04:08.253Z,27.20
2022-08-10T16:06:43.454Z,27.30
2022-08-10T16:10:10.871Z,27.40
2022-08-10T16:12:14.991Z,27.30
2022-08-10T16:14:48.125Z,27.30
2022-08-10T16:17:18.332Z,27.30
2022-08-10T16:19:49.396Z,27.40
2022-08-10T16:22:34.538Z,27.60
2022-08-10T16:25:14.262Z,27.60
2022-08-10T16:27:43.278Z,27.60
2022-08-10T16:30:12.713Z,27.60
2022-08-10T16:32:42.702Z,27.60
2022-08-10T16:35:17.561Z,27.60
2022-08-10T16:37:57.123Z,27.60
2022-08-10T16:40:29.877Z,27.60
2022-08-10T16:43:01.632Z,27.60
2022-08-10T16:45:35.341Z,27.60
2022-08-10T16:48:49.722Z,27.60
2022-08-10T16:51:20.492Z,27.60
2022-08-10T16:53:50.022Z,27.50
2022-08-10T16:56:24.441Z,27.60
2022-08-10T16:58:55.532Z,27.60
2022-08-10T17:01:25.544Z,27.60
2022-08-10T17:04:05.762Z,27.60
2022-08-10T17:06:39.658Z,27.50
2022-08-10T17:09:10.057Z,27.40
2022-08-10T17:11:41.954Z,27.30
2022-08-10T17:14:10.923Z,27.30
2022-08-10T17:16:41.992Z,27.30
2022-08-10T17:19:13.503Z,27.30
2022-08-10T17:21:51.089Z,27.30
2022-08-10T17:24:21.822Z,27.30
2022-08-10T17:26:52.796Z,27.30
2022-08-10T17:29:57.585Z,27.30
2022-08-10T17:32:17.032Z,27.30
2022-08-10T17:34:47.055Z,27.30
2022-08-10T17:37:20.332Z,27.20
2022-08-10T17:39:51.534Z,27.20
2022-08-10T17:42:24.034Z,27.20
2022-08-10T17:44:53.913Z,27.20
2022-08-10T17:47:26.470Z,27.20
2022-08-10T17:49:56.767Z,27.10
2022-08-10T17:52:26.331Z,27.00
2022-08-10T17:54:55.890Z,27.00
2022-08-10T17:57:27.180Z,26.90
2022-08-10T17:59:55.821Z,26.80
2022-08-10T18:02:29.435Z,26.80
2022-08-10T18:05:00.485Z,26.70
2022-08-10T18:07:32.800Z,26.70
2022-08-10T18:10:03.011Z,26.70
2022-08-10T18:12:38.976Z,26.60
2022-08-10T18:15:12.334Z,26.50
2022-08-10T18:17:45.293Z,26.50
2022-08-10T18:20:15.004Z,26.40
2022-08-10T18:22:45.380Z,26.40
2022-08-10T18:25:18.851Z,26.40
2022-08-10T18:28:01.690Z,26.30
2022-08-10T18:30:36.188Z,26.20
2022-08-10T18:33:10.102Z,26.20
2022-08-10T18:35:38.961Z,26.20
2022-08-10T18:38:08.219Z,26.10
2022-08-10T18:40:38.557Z,26.00
2022-08-10T18:44:11.183Z,26.00
2022-08-10T18:46:00.441Z,25.90
2022-08-10T18:48:35.143Z,25.80
2022-08-10T18:51:06.474Z,25.80
2022-08-10T18:53:37.509Z,25.80
2022-08-10T18:56:12.931Z,25.70
2022-08-10T18:59:00.666Z,25.70
2022-08-10T19:01:43.358Z,25.60
2022-08-10T19:04:19.771Z,25.50
2022-08-10T19:07:02.990Z,25.40
2022-08-10T19:09:45.811Z,25.40
2022-08-10T19:12:30.731Z,25.30
2022-08-10T19:15:06.966Z,25.30
2022-08-10T19:18:03.051Z,25.20
2022-08-10T19:20:32.373Z,25.10
2022-08-10T19:23:11.553Z,25.10
2022-08-10T19:26:39.394Z,25.00
2022-08-10T19:28:34.771Z,25.00
2022-08-10T19:31:11.931Z,24.90
2022-08-10T19:33:46.294Z,24.90
2022-08-10T19:36:19.332Z,24.80
2022-08-10T19:38:51.246Z,24.70
2022-08-10T19:41:32.597Z,24.70
2022-08-10T19:44:16.701Z,24.60
2022-08-10T19:46:52.611Z,24.50
2022-08-10T19:49:25.790Z,24.40
2022-08-10T19:51:58.333Z,24.40
2022-08-10T19:54:35.450Z,24.40
2022-08-10T19:57:09.072Z,24.30
2022-08-10T20:00:16.599Z,24.30
2022-08-10T20:02:47.863Z,24.20
2022-08-10T20:05:24.426Z,24.20
2022-08-10T20:07:56.842Z,24.10
2022-08-10T20:10:26.761Z,24.10
2022-08-10T20:13:01.594Z,24.00
2022-08-10T20:15:33.581Z,24.00
2022-08-10T20:18:21.563Z,24.00
2022-08-10T20:20:51.033Z,24.00
2022-08-10T20:23:21.553Z,23.90
2022-08-10T20:25:52.861Z,23.90
2022-08-10T20:28:31.880Z,23.80
2022-08-10T20:31:07.622Z,23.80
2022-08-10T20:33:42.863Z,23.80
2022-08-10T20:36:15.032Z,23.80
2022-08-10T20:38:47.611Z,23.80
2022-08-10T20:41:28.756Z,23.70
2022-08-10T20:44:05.282Z,23.60
2022-08-10T20:46:39.361Z,23.60
2022-08-10T20:49:17.374Z,23.50
2022-08-10T20:51:58.811Z,23.40
2022-08-10T20:54:33.033Z,23.30
2022-08-10T20:57:55.847Z,23.40
2022-08-10T21:00:04.970Z,23.30
2022-08-10T21:02:46.455Z,23.20
2022-08-10T21:05:21.217Z,23.20
2022-08-10T21:08:01.639Z,23.10
2022-08-10T21:10:43.172Z,23.20
2022-08-10T21:13:18.264Z,23.10
2022-08-10T21:15:55.526Z,23.10
2022-08-10T21:18:44.130Z,23.10
2022-08-10T21:21:37.598Z,23.00
2022-08-10T21:24:13.653Z,22.90
2022-08-10T21:26:49.676Z,22.90
2022-08-10T21:29:39.658Z,22.90
2022-08-10T21:32:12.162Z,22.70
2022-08-10T21:34:54.171Z,22.50
2022-08-10T21:37:46.077Z,22.60
2022-08-10T21:40:32.273Z,22.70
2022-08-10T21:43:44.023Z,22.60
2022-08-10T21:46:36.972Z,22.50
2022-08-10T21:49:41.204Z,22.50
2022-08-10T21:52:30.254Z,22.40
2022-08-10T21:55:21.742Z,22.40
2022-08-10T21:58:09.684Z,22.30
2022-08-10T22:01:00.633Z,22.40
2022-08-10T22:03:47.375Z,22.30
2022-08-10T22:06:34.314Z,22.20
2022-08-10T22:12:57.113Z,22.10
2022-08-10T22:16:05.316Z,22.00
2022-08-10T22:19:01.922Z,22.00
2022-08-10T22:21:57.652Z,21.80
2022-08-10T22:24:47.491Z,21.80
2022-08-10T22:31:14.909Z,21.80
2022-08-10T22:31:26.181Z,21.80
2022-08-10T22:33:59.941Z,21.70
2022-08-10T22:37:15.601Z,21.60
2022-08-10T22:40:12.468Z,21.70
2022-08-10T22:43:11.084Z,21.80
2022-08-10T22:46:03.621Z,21.80
2022-08-10T22:48:58.551Z,21.80
2022-08-10T22:51:33.893Z,21.80
2022-08-10T22:54:33.494Z,21.70
2022-08-10T22:57:20.003Z,21.60
2022-08-10T23:00:05.973Z,21.50
2022-08-10T23:02:53.982Z,21.40
2022-08-10T23:05:45.041Z,21.40
2022-08-10T23:08:42.102Z,21.30
2022-08-10T23:11:31.142Z,21.30
2022-08-10T23:14:21.153Z,21.20
2022-08-10T23:17:12.143Z,21.10
2022-08-10T23:20:02.139Z,21.10
2022-08-10T23:22:50.725Z,21.00
2022-08-10T23:25:22.872Z,21.00
2022-08-10T23:28:08.277Z,20.90
2022-08-10T23:31:17.580Z,20.90
2022-08-10T23:34:06.625Z,20.90
2022-08-10T23:36:39.230Z,20.90
2022-08-10T23:39:25.689Z,20.80
2022-08-10T23:42:06.426Z,20.80
2022-08-10T23:44:37.751Z,20.80
2022-08-10T23:47:07.434Z,20.80
2022-08-10T23:49:37.019Z,20.70
2022-08-10T23:52:15.263Z,20.90
2022-08-10T23:54:48.504Z,20.80
2022-08-10T23:57:18.722Z,20.80
2022-08-10T23:59:51.510Z,20.90
